createdAt,value
2022-11-30T00:01:21.410Z,1.80
2022-11-30T00:03:49.762Z,1.80
2022-11-30T00:06:23.510Z,1.00
2022-11-30T00:08:57.741Z,2.60
2022-11-30T00:11:28.744Z,3.00
2022-11-30T00:13:56.777Z,1.00
2022-11-30T00:16:24.434Z,2.60
2022-11-30T00:18:52.496Z,3.00
2022-11-30T00:21:20.322Z,3.00
2022-11-30T00:23:48.222Z,3.80
2022-11-30T00:26:18.794Z,2.60
2022-11-30T00:28:47.015Z,3.00
2022-11-30T00:31:16.678Z,2.60
2022-11-30T00:33:44.675Z,3.40
2022-11-30T00:36:15.115Z,3.00
2022-11-30T00:38:43.202Z,1.00
2022-11-30T00:41:11.455Z,2.20
2022-11-30T00:43:39.139Z,3.80
2022-11-30T00:46:09.546Z,3.60
2022-11-30T00:48:38.582Z,0.00
2022-11-30T00:51:08.105Z,0.00
2022-11-30T00:53:35.976Z,3.20
2022-11-30T00:56:03.530Z,3.00
2022-11-30T00:58:31.705Z,2.60
2022-11-30T01:00:59.317Z,3.00
2022-11-30T01:03:26.794Z,2.20
2022-11-30T01:05:54.343Z,2.20
2022-11-30T01:08:21.741Z,2.60
2022-11-30T01:10:53.592Z,3.00
2022-11-30T01:13:21.226Z,3.00
2022-11-30T01:15:48.669Z,1.00
2022-11-30T01:18:16.709Z,1.40
2022-11-30T01:20:44.344Z,3.80
2022-11-30T01:23:12.255Z,3.00
2022-11-30T01:25:39.955Z,3.00
2022-11-30T01:28:09.511Z,4.00
2022-11-30T01:30:37.073Z,2.60
2022-11-30T01:33:05.317Z,3.00
2022-11-30T01:35:32.654Z,1.00
2022-11-30T01:38:00.254Z,3.80
2022-11-30T01:40:27.785Z,2.60
2022-11-30T01:42:55.339Z,3.00
2022-11-30T01:45:22.835Z,3.00
2022-11-30T01:47:57.101Z,3.00
2022-11-30T01:50:36.391Z,3.00
2022-11-30T01:53:05.596Z,3.20
2022-11-30T01:55:35.459Z,3.00
2022-11-30T01:58:17.735Z,3.00
2022-11-30T02:00:48.159Z,4.00
2022-11-30T02:03:25.362Z,3.00
2022-11-30T02:05:52.841Z,3.00
2022-11-30T02:08:20.522Z,3.00
2022-11-30T02:10:57.513Z,3.00
2022-11-30T02:13:50.055Z,3.00
2022-11-30T02:16:42.742Z,4.00
2022-11-30T02:19:41.256Z,2.60
2022-11-30T02:22:41.688Z,4.00
2022-11-30T02:25:36.788Z,0.00
2022-11-30T02:28:22.542Z,1.00
2022-11-30T02:30:55.129Z,3.20
2022-11-30T02:33:28.471Z,1.00
2022-11-30T02:35:57.616Z,3.00
2022-11-30T02:38:27.228Z,3.00
2022-11-30T02:40:54.790Z,3.00
2022-11-30T02:43:26.428Z,1.40
2022-11-30T02:46:15.086Z,1.00
2022-11-30T02:49:06.813Z,3.00
2022-11-30T02:51:37.930Z,1.80
2022-11-30T02:54:05.550Z,1.80
2022-11-30T02:56:33.792Z,3.00
2022-11-30T02:59:01.142Z,1.00
2022-11-30T03:01:28.911Z,0.00
2022-11-30T03:03:56.458Z,1.00
2022-11-30T03:06:23.975Z,3.00
2022-11-30T03:08:51.581Z,3.00
2022-11-30T03:11:19.054Z,3.00
2022-11-30T03:13:46.500Z,3.40
2022-11-30T03:16:14.517Z,1.00
2022-11-30T03:18:42.079Z,0.20
2022-11-30T03:21:12.108Z,0.00
2022-11-30T03:23:41.179Z,3.00
2022-11-30T03:26:09.776Z,3.00
2022-11-30T03:28:37.949Z,2.40
2022-11-30T03:31:05.908Z,3.00
2022-11-30T03:33:33.580Z,4.50
2022-11-30T03:36:01.822Z,3.00
2022-11-30T03:38:29.408Z,3.80
2022-11-30T03:41:04.742Z,3.80
2022-11-30T03:43:32.234Z,3.60
2022-11-30T03:46:00.010Z,3.25
2022-11-30T03:48:27.554Z,3.00
2022-11-30T03:50:55.001Z,1.00
2022-11-30T03:53:24.320Z,3.00
2022-11-30T03:55:58.038Z,3.00
2022-11-30T03:58:26.247Z,0.00
2022-11-30T04:01:10.395Z,3.00
2022-11-30T04:03:38.792Z,4.00
2022-11-30T04:06:07.254Z,3.00
2022-11-30T04:08:35.253Z,0.60
2022-11-30T04:11:03.628Z,6.00
2022-11-30T04:13:32.501Z,3.00
2022-11-30T04:16:00.550Z,4.80
2022-11-30T04:18:29.527Z,2.20
2022-11-30T04:20:58.878Z,3.00
2022-11-30T04:23:29.606Z,1.80
2022-11-30T04:25:58.045Z,4.40
2022-11-30T04:28:25.606Z,2.20
2022-11-30T04:30:54.672Z,3.75
2022-11-30T04:33:23.961Z,3.00
2022-11-30T04:35:55.118Z,5.20
2022-11-30T04:38:23.842Z,4.00
2022-11-30T04:40:51.372Z,4.00
2022-11-30T04:43:19.293Z,5.20
2022-11-30T04:45:47.585Z,1.00
2022-11-30T04:48:16.126Z,4.00
2022-11-30T04:50:43.847Z,3.00
2022-11-30T04:53:12.101Z,3.00
2022-11-30T04:55:40.028Z,3.00
2022-11-30T04:58:08.225Z,3.00
2022-11-30T05:00:37.146Z,3.60
2022-11-30T05:03:04.701Z,3.80
2022-11-30T05:05:32.642Z,3.00
2022-11-30T05:08:00.591Z,4.00
2022-11-30T05:10:28.906Z,4.00
2022-11-30T05:12:57.516Z,3.40
2022-11-30T05:15:25.280Z,3.00
2022-11-30T05:17:53.232Z,3.00
2022-11-30T05:20:20.867Z,3.60
2022-11-30T05:22:50.007Z,3.80
2022-11-30T05:25:17.659Z,3.00
2022-11-30T05:27:45.330Z,5.20
2022-11-30T05:30:13.840Z,3.20
2022-11-30T05:32:41.446Z,4.00
2022-11-30T05:35:09.880Z,3.00
2022-11-30T05:37:43.103Z,4.00
2022-11-30T05:40:11.356Z,5.60
2022-11-30T05:42:39.278Z,3.00
2022-11-30T05:45:07.816Z,1.80
2022-11-30T05:47:35.452Z,4.80
2022-11-30T05:50:03.511Z,3.20
2022-11-30T05:52:31.682Z,4.00
2022-11-30T05:54:59.961Z,0.20
2022-11-30T05:57:27.864Z,6.00
2022-11-30T05:59:55.623Z,2.60
2022-11-30T06:02:27.976Z,4.00
2022-11-30T06:04:56.342Z,6.00
2022-11-30T06:07:24.048Z,3.00
2022-11-30T06:09:52.093Z,4.40
2022-11-30T06:12:20.095Z,4.00
2022-11-30T06:14:48.089Z,3.60
2022-11-30T06:17:15.920Z,3.00
2022-11-30T06:19:44.041Z,4.40
2022-11-30T06:22:12.181Z,3.00
2022-11-30T06:24:39.878Z,3.00
2022-11-30T06:27:07.750Z,6.00
2022-11-30T06:29:35.238Z,6.00
2022-11-30T06:32:03.450Z,7.20
2022-11-30T06:34:32.705Z,6.20
2022-11-30T06:37:00.678Z,3.00
2022-11-30T06:39:57.748Z,3.00
2022-11-30T06:42:16.343Z,6.80
2022-11-30T06:44:44.240Z,4.80
2022-11-30T06:47:12.147Z,4.40
2022-11-30T06:49:40.136Z,7.00
2022-11-30T06:52:07.694Z,4.80
2022-11-30T06:54:35.463Z,7.00
2022-11-30T06:57:03.199Z,4.00
2022-11-30T06:59:30.923Z,4.00
2022-11-30T07:02:01.665Z,3.40
2022-11-30T07:04:34.102Z,4.00
2022-11-30T07:07:01.961Z,4.00
2022-11-30T07:09:29.679Z,3.20
2022-11-30T07:11:57.592Z,6.00
2022-11-30T07:14:26.039Z,7.00
2022-11-30T07:16:56.080Z,10.00
2022-11-30T07:19:24.686Z,5.00
2022-11-30T07:21:52.281Z,3.80
2022-11-30T07:24:38.524Z,6.00
2022-11-30T07:27:06.273Z,6.00
2022-11-30T07:29:33.834Z,1.00
2022-11-30T07:32:01.964Z,4.80
2022-11-30T07:34:29.809Z,4.00
2022-11-30T07:36:57.403Z,3.20
2022-11-30T07:39:25.120Z,4.00
2022-11-30T07:41:52.739Z,3.60
2022-11-30T07:44:20.443Z,5.00
2022-11-30T07:46:48.680Z,3.20
2022-11-30T07:49:16.279Z,4.00
2022-11-30T07:51:44.285Z,4.80
2022-11-30T07:54:12.363Z,6.00
2022-11-30T07:56:40.407Z,6.00
2022-11-30T07:59:07.963Z,4.00
2022-11-30T08:01:36.335Z,6.00
2022-11-30T08:04:04.327Z,3.60
2022-11-30T08:06:32.527Z,6.00
2022-11-30T08:09:04.413Z,7.00
2022-11-30T08:11:34.369Z,5.20
2022-11-30T08:14:02.817Z,4.40
2022-11-30T08:16:34.738Z,6.00
2022-11-30T08:19:02.587Z,7.00
2022-11-30T08:21:32.215Z,6.40
2022-11-30T08:24:00.065Z,6.00
2022-11-30T08:26:30.815Z,2.60
2022-11-30T08:28:59.701Z,7.00
2022-11-30T08:31:30.270Z,7.00
2022-11-30T08:34:00.153Z,6.60
2022-11-30T08:36:29.691Z,6.20
2022-11-30T08:39:02.788Z,7.40
2022-11-30T08:41:30.497Z,7.00
2022-11-30T08:43:58.150Z,9.20
2022-11-30T08:54:49.331Z,3.00
2022-11-30T08:57:19.121Z,6.20
2022-11-30T08:59:47.041Z,7.00
2022-11-30T09:02:19.921Z,5.60
2022-11-30T09:04:49.690Z,4.00
2022-11-30T09:07:17.202Z,5.60
2022-11-30T09:09:44.793Z,1.80
2022-11-30T09:12:12.047Z,4.00
2022-11-30T09:14:39.357Z,1.00
2022-11-30T09:17:06.785Z,6.00
2022-11-30T09:19:34.261Z,5.00
2022-11-30T09:22:01.612Z,6.00
2022-11-30T09:24:29.265Z,7.40
2022-11-30T09:26:57.697Z,7.00
2022-11-30T09:29:25.396Z,4.00
2022-11-30T09:31:53.032Z,4.00
2022-11-30T09:34:20.605Z,4.00
2022-11-30T09:36:47.996Z,6.20
2022-11-30T09:39:15.368Z,4.00
2022-11-30T09:42:08.533Z,4.00
2022-11-30T09:45:02.370Z,4.00
2022-11-30T09:47:59.190Z,6.00
2022-11-30T09:50:32.478Z,9.40
2022-11-30T09:53:05.500Z,6.60
2022-11-30T09:55:45.625Z,6.80
2022-11-30T09:58:45.080Z,3.00
2022-11-30T10:01:20.715Z,3.80
2022-11-30T10:03:48.581Z,6.80
2022-11-30T10:06:45.722Z,6.60
2022-11-30T10:10:09.373Z,4.00
2022-11-30T10:13:06.923Z,4.40
2022-11-30T10:15:54.737Z,3.60
2022-11-30T10:18:41.720Z,4.00
2022-11-30T10:21:30.609Z,7.00
2022-11-30T10:24:22.544Z,6.00
2022-11-30T10:26:57.941Z,4.00
2022-11-30T10:29:36.182Z,6.00
2022-11-30T10:32:20.531Z,7.40
2022-11-30T10:34:53.303Z,9.60
2022-11-30T10:37:32.383Z,5.20
2022-11-30T10:40:03.021Z,6.00
2022-11-30T10:42:42.181Z,4.80
2022-11-30T10:45:15.253Z,7.00
2022-11-30T10:48:07.374Z,7.00
2022-11-30T10:50:35.689Z,7.00
2022-11-30T10:53:03.639Z,4.00
2022-11-30T10:55:40.437Z,6.00
2022-11-30T10:58:30.316Z,7.00
2022-11-30T11:01:07.974Z,7.00
2022-11-30T11:03:36.092Z,3.00
2022-11-30T11:06:20.441Z,6.40
2022-11-30T11:08:48.004Z,7.40
2022-11-30T11:11:34.754Z,7.00
2022-11-30T11:14:17.409Z,3.60
2022-11-30T11:17:15.646Z,6.00
2022-11-30T11:19:44.052Z,5.20
2022-11-30T11:22:38.253Z,7.00
2022-11-30T11:25:20.080Z,7.00
2022-11-30T11:27:53.511Z,9.00
2022-11-30T11:30:27.330Z,10.00
2022-11-30T11:33:11.944Z,9.60
2022-11-30T11:35:43.675Z,11.80
2022-11-30T11:38:27.465Z,9.00
2022-11-30T11:41:05.534Z,9.00
2022-11-30T11:43:35.521Z,9.00
2022-11-30T11:46:14.551Z,12.60
2022-11-30T11:48:56.496Z,7.40
2022-11-30T11:51:39.057Z,9.00
2022-11-30T11:54:27.794Z,10.80
2022-11-30T11:56:58.204Z,6.00
2022-11-30T11:59:32.177Z,8.40
2022-11-30T12:02:29.612Z,11.60
2022-11-30T12:05:24.916Z,4.40
2022-11-30T12:08:22.407Z,7.40
2022-11-30T12:10:53.672Z,10.00
2022-11-30T12:13:27.286Z,5.60
2022-11-30T12:16:11.023Z,4.00
2022-11-30T12:19:02.741Z,9.80
2022-11-30T12:22:02.763Z,9.00
2022-11-30T12:25:05.735Z,7.00
2022-11-30T12:27:52.087Z,7.00
2022-11-30T12:31:11.897Z,10.00
2022-11-30T12:33:59.429Z,8.60
2022-11-30T12:36:40.080Z,6.00
2022-11-30T12:39:54.369Z,9.40
2022-11-30T12:42:47.965Z,9.40
2022-11-30T12:45:46.836Z,8.20
2022-11-30T12:48:20.209Z,9.00
2022-11-30T12:51:06.331Z,9.20
2022-11-30T12:53:46.451Z,3.40
2022-11-30T12:56:53.487Z,7.20
2022-11-30T12:59:50.037Z,10.00
2022-11-30T13:02:34.996Z,8.60
2022-11-30T13:05:13.442Z,8.40
2022-11-30T13:07:48.650Z,7.80
2022-11-30T13:10:32.801Z,6.40
2022-11-30T13:13:04.785Z,12.40
2022-11-30T13:15:35.408Z,9.60
2022-11-30T13:18:06.530Z,7.40
2022-11-30T13:20:52.598Z,9.20
2022-11-30T13:23:45.205Z,5.20
2022-11-30T13:26:31.682Z,7.00
2022-11-30T13:29:33.648Z,9.40
2022-11-30T13:32:56.289Z,9.00
2022-11-30T13:35:28.122Z,12.00
2022-11-30T13:38:38.012Z,9.80
2022-11-30T13:41:09.157Z,6.20
2022-11-30T13:43:48.376Z,9.20
2022-11-30T13:46:20.329Z,6.40
2022-11-30T13:48:48.721Z,10.00
2022-11-30T13:51:36.461Z,6.40
2022-11-30T13:54:41.578Z,4.00
2022-11-30T13:57:27.935Z,7.00
2022-11-30T14:00:00.511Z,8.20
2022-11-30T14:02:34.405Z,3.00
2022-11-30T14:05:17.549Z,4.40
2022-11-30T14:08:10.364Z,5.20
2022-11-30T14:10:43.217Z,9.25
2022-11-30T14:13:10.866Z,6.60
2022-11-30T14:15:42.384Z,5.60
2022-11-30T14:18:09.906Z,7.00
2022-11-30T14:20:45.282Z,9.25
2022-11-30T14:23:43.852Z,7.00
2022-11-30T14:26:15.078Z,5.20
2022-11-30T14:28:52.519Z,6.00
2022-11-30T14:31:26.471Z,9.00
2022-11-30T14:33:58.747Z,0.00
2022-11-30T14:36:34.641Z,9.00
2022-11-30T14:39:02.440Z,7.00
2022-11-30T14:41:31.490Z,8.20
2022-11-30T14:44:05.281Z,7.00
2022-11-30T14:46:35.363Z,7.00
2022-11-30T14:49:15.081Z,8.20
2022-11-30T14:51:58.040Z,2.80
2022-11-30T14:54:44.602Z,9.00
2022-11-30T14:57:19.948Z,4.80
2022-11-30T14:59:51.082Z,3.00
2022-11-30T15:02:39.010Z,7.00
2022-11-30T15:05:08.947Z,4.00
2022-11-30T15:07:37.720Z,8.20
2022-11-30T15:10:10.211Z,9.00
2022-11-30T15:12:41.075Z,10.00
2022-11-30T15:15:17.033Z,9.60
2022-11-30T15:17:59.644Z,8.20
2022-11-30T15:20:49.746Z,7.80
2022-11-30T15:23:17.610Z,7.40
2022-11-30T15:25:49.471Z,8.20
2022-11-30T15:28:24.760Z,9.40
2022-11-30T15:31:01.581Z,9.40
2022-11-30T15:33:36.934Z,3.40
2022-11-30T15:36:22.811Z,6.20
2022-11-30T15:38:52.218Z,7.40
2022-11-30T15:41:25.327Z,8.20
2022-11-30T15:43:55.400Z,7.80
2022-11-30T15:46:42.708Z,9.60
2022-11-30T15:49:23.574Z,9.00
2022-11-30T15:52:00.048Z,9.60
2022-11-30T15:54:57.154Z,9.00
2022-11-30T15:57:28.438Z,5.20
2022-11-30T16:00:12.716Z,11.60
2022-11-30T16:02:40.762Z,9.00
2022-11-30T16:05:15.011Z,9.80
2022-11-30T16:07:59.658Z,10.00
2022-11-30T16:10:33.064Z,9.60
2022-11-30T16:13:00.660Z,8.20
2022-11-30T16:15:35.606Z,9.40
2022-11-30T16:18:26.491Z,9.40
2022-11-30T16:20:57.844Z,9.00
2022-11-30T16:23:26.396Z,9.80
2022-11-30T16:25:54.533Z,9.00
2022-11-30T16:28:22.979Z,10.00
2022-11-30T16:30:50.961Z,12.00
2022-11-30T16:33:21.098Z,9.40
2022-11-30T16:36:23.704Z,10.00
2022-11-30T16:38:52.557Z,11.00
2022-11-30T16:41:23.116Z,10.00
2022-11-30T16:43:52.750Z,11.20
2022-11-30T16:46:22.803Z,4.00
2022-11-30T16:48:50.512Z,12.50
2022-11-30T16:51:29.159Z,11.00
2022-11-30T16:53:58.519Z,8.00
2022-11-30T16:56:26.120Z,10.50
2022-11-30T16:58:54.341Z,8.00
2022-11-30T17:01:28.011Z,8.20
2022-11-30T17:04:00.041Z,9.75
2022-11-30T17:06:27.612Z,8.60
2022-11-30T17:08:55.572Z,11.50
2022-11-30T17:11:29.774Z,10.40
2022-11-30T17:13:57.237Z,7.00
2022-11-30T17:16:24.777Z,12.00
2022-11-30T17:18:52.276Z,9.00
2022-11-30T17:21:28.652Z,10.50
2022-11-30T17:23:56.678Z,5.50
2022-11-30T17:26:24.124Z,9.25
2022-11-30T17:28:51.824Z,9.75
2022-11-30T17:31:19.697Z,7.50
2022-11-30T17:33:48.595Z,9.00
2022-11-30T17:36:18.965Z,7.50
2022-11-30T17:38:46.436Z,10.00
2022-11-30T17:41:19.198Z,6.00
2022-11-30T17:43:48.297Z,7.50
2022-11-30T17:46:18.168Z,4.00
2022-11-30T17:48:46.108Z,8.50
2022-11-30T17:51:13.964Z,10.25
2022-11-30T17:53:42.590Z,11.50
2022-11-30T17:56:15.682Z,6.50
2022-11-30T17:58:44.947Z,6.00
2022-11-30T18:01:21.492Z,12.50
2022-11-30T18:03:50.111Z,12.25
2022-11-30T18:06:17.992Z,9.00
2022-11-30T18:08:46.212Z,10.00
2022-11-30T18:11:20.618Z,10.00
2022-11-30T18:13:54.008Z,9.00
2022-11-30T18:16:27.213Z,12.25
2022-11-30T18:18:57.559Z,7.00
2022-11-30T18:21:27.619Z,10.00
2022-11-30T18:23:55.183Z,14.00
2022-11-30T18:26:24.811Z,14.00
2022-11-30T18:28:57.627Z,10.50
2022-11-30T18:31:26.751Z,11.75
2022-11-30T18:34:01.667Z,12.50
2022-11-30T18:36:29.522Z,6.00
2022-11-30T18:38:57.204Z,9.00
2022-11-30T18:41:26.423Z,9.25
2022-11-30T18:43:54.158Z,7.50
2022-11-30T18:46:21.750Z,9.75
2022-11-30T18:48:50.617Z,16.00
2022-11-30T18:51:22.022Z,15.00
2022-11-30T18:53:49.771Z,11.25
2022-11-30T18:56:21.239Z,12.25
2022-11-30T18:58:49.102Z,8.25
2022-11-30T19:01:19.641Z,9.00
2022-11-30T19:03:55.998Z,8.00
2022-11-30T19:06:29.874Z,8.50
2022-11-30T19:08:57.759Z,6.50
2022-11-30T19:11:25.906Z,9.50
2022-11-30T19:13:58.323Z,6.75
2022-11-30T19:16:27.634Z,7.50
2022-11-30T19:18:56.025Z,6.75
2022-11-30T19:21:24.203Z,6.00
2022-11-30T19:23:51.636Z,6.00
2022-11-30T19:26:19.562Z,7.00
2022-11-30T19:28:47.308Z,5.00
2022-11-30T19:31:17.791Z,6.75
2022-11-30T19:33:49.053Z,7.50
2022-11-30T19:36:22.138Z,7.50
2022-11-30T19:38:51.748Z,7.50
2022-11-30T19:41:20.684Z,8.75
2022-11-30T19:43:57.034Z,6.25
2022-11-30T19:46:27.899Z,8.50
2022-11-30T19:49:00.796Z,9.00
2022-11-30T19:51:30.020Z,7.00
2022-11-30T19:53:57.833Z,6.75
2022-11-30T19:56:26.918Z,7.25
2022-11-30T19:58:58.762Z,9.00
2022-11-30T20:01:31.561Z,12.75
2022-11-30T20:03:59.325Z,12.50
2022-11-30T20:06:33.179Z,12.00
2022-11-30T20:09:00.878Z,8.50
2022-11-30T20:11:28.819Z,6.20
2022-11-30T20:13:56.397Z,6.00
2022-11-30T20:16:23.768Z,11.20
2022-11-30T20:18:54.661Z,9.00
2022-11-30T20:21:27.745Z,7.00
2022-11-30T20:23:58.439Z,6.20
2022-11-30T20:26:32.209Z,7.00
2022-11-30T20:29:01.583Z,7.00
2022-11-30T20:31:30.455Z,6.75
2022-11-30T20:33:58.997Z,6.50
2022-11-30T20:36:26.282Z,9.40
2022-11-30T20:38:53.841Z,6.00
2022-11-30T20:41:24.195Z,9.00
2022-11-30T20:43:51.952Z,8.20
2022-11-30T20:46:23.956Z,7.00
2022-11-30T20:48:51.856Z,6.20
2022-11-30T20:51:30.729Z,15.00
2022-11-30T20:54:05.832Z,7.80
2022-11-30T20:56:37.610Z,12.00
2022-11-30T20:59:08.882Z,9.20
2022-11-30T21:01:36.544Z,6.50
2022-11-30T21:04:04.355Z,9.00
2022-11-30T21:06:32.135Z,8.60
2022-11-30T21:08:59.606Z,9.80
2022-11-30T21:11:28.713Z,7.00
2022-11-30T21:13:57.076Z,7.00
2022-11-30T21:16:28.458Z,9.20
2022-11-30T21:19:00.207Z,7.00
2022-11-30T21:21:32.673Z,9.50
2022-11-30T21:24:01.775Z,6.00
2022-11-30T21:26:34.998Z,6.40
2022-11-30T21:29:07.136Z,7.80
2022-11-30T21:31:34.974Z,8.60
2022-11-30T21:34:02.637Z,7.50
2022-11-30T21:36:30.217Z,7.40
2022-11-30T21:39:05.967Z,7.00
2022-11-30T21:41:38.999Z,7.40
2022-11-30T21:44:08.491Z,8.00
2022-11-30T21:46:35.908Z,10.00
2022-11-30T21:49:03.496Z,8.50
2022-11-30T21:51:34.388Z,10.00
2022-11-30T21:54:04.662Z,18.50
2022-11-30T21:56:35.141Z,7.00
2022-11-30T21:59:04.566Z,9.00
2022-11-30T22:01:41.911Z,15.00
